Time;durP1;ratioP1;P1;durP2;ratioP2;P2;SDS_P1;SDS_P2;PMS_P1;PMS_P2;Temp;Humidity;BMP_temperature;BMP_pressure;BME280_temperature;BME280_humidity;BME280_pressure;Samples;Min_cycle;Max_cycle;Signal;HPM_P1;HPM_P2
2022/12/27 00:01:25;;;;;;;4.60;2.60;;;;;;;1.76;99.83;102114.69;5058045;28;20028;-88
2022/12/27 00:03:51;;;;;;;;;;;;;;;1.80;99.02;102124.25;5059479;28;20024;-89
2022/12/27 00:06:31;;;;;;;5.17;2.90;;;;;;;1.77;99.73;102133.50;5057876;28;20269;-88
2022/12/27 00:08:57;;;;;;;6.10;3.00;;;;;;;1.76;99.99;102135.16;5054474;28;20432;-87
2022/12/27 00:11:25;;;;;;;5.23;3.10;;;;;;;1.79;99.63;102134.44;5054476;28;20029;-88
2022/12/27 00:14:03;;;;;;;6.57;3.10;;;;;;;1.76;99.59;102132.59;5054360;28;20017;-88
2022/12/27 00:16:29;;;;;;;5.30;2.90;;;;;;;1.78;99.98;102141.22;5054377;28;20033;-88
2022/12/27 00:18:55;;;;;;;7.00;3.03;;;;;;;1.76;99.80;102137.72;5054273;28;20064;-88
2022/12/27 00:21:20;;;;;;;5.18;2.83;;;;;;;1.75;99.62;102141.09;5054130;28;20358;-88
2022/12/27 00:23:49;;;;;;;6.75;3.33;;;;;;;1.74;99.78;102135.91;5053701;28;20070;-88
2022/12/27 00:26:25;;;;;;;7.20;2.90;;;;;;;1.68;100.00;102128.84;5053714;28;20029;-87
2022/12/27 00:28:51;;;;;;;7.20;3.10;;;;;;;1.70;99.58;102133.22;5053991;28;20021;-88
2022/12/27 00:31:18;;;;;;;5.38;2.60;;;;;;;1.70;100.00;102132.34;5054055;28;20151;-89
2022/12/27 00:33:55;;;;;;;6.20;2.85;;;;;;;1.74;100.00;102146.16;5054278;28;20017;-89
2022/12/27 00:36:23;;;;;;;5.57;2.80;;;;;;;1.68;100.00;102145.09;5053126;28;20454;-86
2022/12/27 00:39:23;;;;;;;6.45;2.92;;;;;;;1.73;100.00;102154.63;5053813;28;20021;-86
2022/12/27 00:41:41;;;;;;;7.53;3.00;;;;;;;1.71;100.00;102149.47;5050838;28;20489;-87
2022/12/27 00:44:18;;;;;;;5.80;2.88;;;;;;;1.73;100.00;102144.41;5053124;28;20025;-86
2022/12/27 00:46:43;;;;;;;8.30;3.05;;;;;;;1.74;100.00;102153.84;5053345;28;20035;-87
2022/12/27 00:49:09;;;;;;;9.05;3.30;;;;;;;1.72;100.00;102142.66;5053321;28;20025;-87
2022/12/27 00:51:34;;;;;;;6.53;3.10;;;;;;;1.77;100.00;102152.28;5053336;28;20478;-87
2022/12/27 00:53:59;;;;;;;6.05;2.90;;;;;;;1.76;100.00;102150.53;5054052;28;20452;-87
2022/12/27 00:56:33;;;;;;;5.40;2.72;;;;;;;1.75;100.00;102161.56;5053444;28;20013;-87
2022/12/27 00:59:01;;;;;;;9.48;3.08;;;;;;;1.74;100.00;102159.84;5053733;28;20433;-87
2022/12/27 01:01:29;;;;;;;4.50;2.70;;;;;;;1.75;100.00;102165.81;5053333;28;20074;-87
2022/12/27 01:03:55;;;;;;;7.20;3.00;;;;;;;1.74;100.00;102164.06;5053717;28;20112;-86
2022/12/27 01:06:32;;;;;;;6.22;2.70;;;;;;;1.76;100.00;102173.56;5053563;28;20040;-87
2022/12/27 01:08:59;;;;;;;4.72;2.70;;;;;;;1.75;100.00;102160.72;5053634;28;20025;-87
2022/12/27 01:11:27;;;;;;;6.40;3.25;;;;;;;1.78;100.00;102163.41;5053522;28;20036;-87
2022/12/27 01:14:03;;;;;;;5.68;2.90;;;;;;;1.82;100.00;102172.94;5053599;28;20025;-87
2022/12/27 01:16:30;;;;;;;4.82;2.70;;;;;;;1.81;100.00;102169.53;5053412;28;20025;-87
2022/12/27 01:18:56;;;;;;;5.85;2.80;;;;;;;1.82;100.00;102172.94;5053107;28;20146;-87
2022/12/27 01:21:23;;;;;;;5.65;2.80;;;;;;;1.83;100.00;102179.81;5053428;28;20475;-87
2022/12/27 01:23:58;;;;;;;5.28;2.78;;;;;;;1.80;100.00;102178.00;5053254;28;20036;-87
2022/12/27 01:26:23;;;;;;;5.85;2.85;;;;;;;1.80;100.00;102182.28;5052813;28;20032;-86
2022/12/27 01:28:51;;;;;;;5.53;2.90;;;;;;;1.81;100.00;102190.00;5053543;28;20020;-87
2022/12/27 01:31:29;;;;;;;4.40;2.50;;;;;;;1.80;100.00;102180.56;5053095;28;20082;-86
2022/12/27 01:33:57;;;;;;;6.13;2.67;;;;;;;1.80;100.00;102187.38;5053059;28;20499;-87
2022/12/27 01:36:24;;;;;;;6.05;2.60;;;;;;;1.80;100.00;102198.50;5053317;28;20025;-87
2022/12/27 01:38:50;;;;;;;5.82;3.00;;;;;;;1.82;100.00;102201.09;5053568;28;20027;-87
2022/12/27 01:44:42;;;;;;;5.57;2.80;;;;;;;1.81;100.00;102202.81;5053397;28;20090;-87
2022/12/27 01:47:26;;;;;;;4.50;2.55;;;;;;;1.81;100.00;102213.03;5052582;28;20036;-87
2022/12/27 01:50:15;;;;;;;6.90;2.92;;;;;;;1.80;100.00;102205.31;5053554;28;20025;-87
2022/12/27 01:52:47;;;;;;;8.65;3.10;;;;;;;1.79;100.00;102214.66;5053403;28;20045;-87
2022/12/27 01:55:27;;;;;;;7.35;3.05;;;;;;;1.80;100.00;102213.84;5052977;28;20036;-87
2022/12/27 01:57:58;;;;;;;7.22;3.05;;;;;;;1.79;100.00;102214.66;5053065;28;20079;-87
2022/12/27 02:00:23;;;;;;;6.13;3.00;;;;;;;1.76;100.00;102209.41;5052316;28;20021;-87
2022/12/27 02:02:50;;;;;;;6.13;2.80;;;;;;;1.79;100.00;102218.91;5053190;28;20473;-87
2022/12/27 02:05:17;;;;;;;5.25;2.83;;;;;;;1.80;100.00;102228.34;5052494;28;20539;-87
2022/12/27 02:07:57;;;;;;;6.80;2.85;;;;;;;1.79;100.00;102224.91;5053086;28;20074;-87
2022/12/27 02:10:23;;;;;;;5.15;2.72;;;;;;;1.78;100.00;102230.81;5052708;28;20045;-86
2022/12/27 02:12:48;;;;;;;6.07;2.95;;;;;;;1.78;100.00;102224.84;5053288;28;20444;-87
2022/12/27 02:15:14;;;;;;;5.35;2.65;;;;;;;1.80;100.00;102230.91;5052371;28;20043;-87
2022/12/27 02:17:39;;;;;;;7.38;2.92;;;;;;;1.80;100.00;102223.22;5052653;28;20013;-87
2022/12/27 02:20:13;;;;;;;6.00;3.10;;;;;;;1.80;100.00;102229.22;5052843;28;20021;-86
2022/12/27 02:26:35;;;;;;;3.92;2.63;;;;;;;1.83;100.00;102228.47;5054860;28;20114;-87
2022/12/27 02:29:33;;;;;;;6.57;2.75;;;;;;;1.87;100.00;102238.03;5041444;28;20036;-87
2022/12/27 02:32:16;;;;;;;6.47;2.85;;;;;;;1.83;100.00;102231.00;5037212;28;20041;-87
2022/12/27 02:34:57;;;;;;;7.45;2.65;;;;;;;1.84;100.00;102238.78;5072777;28;20029;-87
2022/12/27 02:37:26;;;;;;;6.22;2.70;;;;;;;1.85;100.00;102239.66;5055905;28;20037;-87
2022/12/27 02:39:54;;;;;;;7.40;2.88;;;;;;;1.88;100.00;102237.22;5056434;28;20032;-87
2022/12/27 02:54:23;;;;;;;9.15;3.13;;;;;;;1.93;100.00;102227.19;5008695;28;20029;-88
2022/12/27 02:57:15;;;;;;;6.95;2.95;;;;;;;1.93;100.00;102230.59;5056050;28;20060;-87
2022/12/27 03:05:45;;;;;;;8.77;2.78;;;;;;;1.89;100.00;102231.31;5055855;28;20541;-87
2022/12/27 03:08:18;;;;;;;;;;;;;;;1.91;100.00;102227.13;5055866;28;20052;-87
2022/12/27 03:16:54;;;;;;;4.63;2.42;;;;;;;1.93;100.00;102237.41;5056084;28;20032;-88
2022/12/27 03:33:11;;;;;;;7.00;2.55;;;;;;;1.94;100.00;102247.72;5055800;28;20047;-87
2022/12/27 03:33:26;;;;;;;5.43;2.10;;;;;;;1.94;100.00;102255.41;5055107;28;20066;-87
2022/12/27 03:39:15;;;;;;;5.35;2.10;;;;;;;1.93;100.00;102269.00;5055251;28;20102;-88
2022/12/27 03:44:55;;;;;;;3.97;2.00;;;;;;;1.97;100.00;102281.16;5055440;28;20036;-87
2022/12/27 03:47:29;;;;;;;3.90;2.20;;;;;;;2.00;100.00;102277.84;5054751;28;20029;-87
2022/12/27 03:50:03;;;;;;;7.78;2.40;;;;;;;2.04;100.00;102268.59;5055223;28;20032;-87
2022/12/27 03:52:57;;;;;;;4.57;2.65;;;;;;;2.09;100.00;102280.78;5054796;28;20044;-88
2022/12/27 03:55:23;;;;;;;3.83;2.40;;;;;;;2.09;100.00;102285.91;5051643;28;20037;-88
2022/12/27 03:58:03;;;;;;;5.03;2.33;;;;;;;2.11;100.00;102288.56;5055188;28;20021;-87
2022/12/27 04:00:29;;;;;;;4.97;2.17;;;;;;;2.11;100.00;102286.00;5054672;28;20495;-88
2022/12/27 04:02:54;;;;;;;5.22;2.15;;;;;;;2.13;100.00;102289.50;5054348;28;20064;-87
2022/12/27 04:05:19;;;;;;;4.50;2.10;;;;;;;2.14;100.00;102286.09;5054576;28;20104;-87
2022/12/27 04:35:05;;;;;;;2.83;1.80;;;;;;;2.03;100.00;102285.66;5054023;28;20035;-88
2022/12/27 04:37:31;;;;;;;3.60;1.95;;;;;;;2.00;100.00;102282.94;5054147;28;20029;-89
2022/12/27 04:56:26;;;;;;;6.45;2.38;;;;;;;1.97;100.00;102308.44;5053358;28;20040;-89
2022/12/27 05:04:19;;;;;;;6.32;2.45;;;;;;;2.05;100.00;102306.19;5053680;28;20106;-89
2022/12/27 05:06:45;;;;;;;4.20;2.25;;;;;;;2.10;100.00;102308.16;5053792;28;20465;-88
2022/12/27 05:14:38;;;;;;;6.63;2.53;;;;;;;2.19;100.00;102300.00;5053871;28;20048;-88
2022/12/27 05:17:03;;;;;;;4.25;2.17;;;;;;;2.20;100.00;102301.75;5052943;28;20025;-87
2022/12/27 05:19:28;;;;;;;3.95;2.30;;;;;;;2.19;100.00;102306.81;5053066;28;20091;-89
2022/12/27 05:27:22;;;;;;;3.25;1.90;;;;;;;2.10;100.00;102309.84;5053542;28;20154;-89
2022/12/27 05:29:47;;;;;;;3.70;2.00;;;;;;;2.07;100.00;102309.72;5053519;28;20025;-89
2022/12/27 05:32:12;;;;;;;4.13;1.98;;;;;;;2.03;100.00;102315.53;5053616;28;20067;-89
2022/12/27 05:34:38;;;;;;;2.50;2.00;;;;;;;2.01;100.00;102315.44;5053640;28;20048;-89
2022/12/27 05:37:03;;;;;;;4.90;2.30;;;;;;;2.01;100.00;102315.44;5053372;28;20418;-89
2022/12/27 05:39:28;;;;;;;8.77;2.20;;;;;;;2.02;100.00;102324.88;5052942;28;20025;-89
2022/12/27 05:41:54;;;;;;;8.73;2.50;;;;;;;2.11;100.00;102337.22;5053283;28;20039;-88
2022/12/27 05:44:19;;;;;;;7.35;2.38;;;;;;;2.16;100.00;102334.03;5053337;28;20028;-88
2022/12/27 05:46:44;;;;;;;6.68;2.45;;;;;;;2.25;100.00;102355.75;5052850;28;20481;-89
2022/12/27 05:49:09;;;;;;;7.00;2.50;;;;;;;2.29;100.00;102366.19;5053106;28;20112;-88
2022/12/27 05:51:35;;;;;;;6.82;2.65;;;;;;;2.36;100.00;102376.72;5053162;28;20120;-89
2022/12/27 05:54:00;;;;;;;6.28;2.60;;;;;;;2.40;100.00;102363.22;5052953;28;20032;-89
2022/12/27 05:56:25;;;;;;;6.75;2.83;;;;;;;2.45;100.00;102370.28;5052857;28;20053;-89
2022/12/27 05:58:54;;;;;;;7.80;2.70;;;;;;;2.47;100.00;102372.94;5053569;28;20027;-89
2022/12/27 06:01:19;;;;;;;6.30;2.47;;;;;;;2.50;100.00;102373.03;5055830;28;20411;-89
2022/12/27 06:03:45;;;;;;;5.72;2.30;;;;;;;2.51;100.00;102376.50;5057273;28;20079;-89
2022/12/27 06:06:11;;;;;;;5.97;2.40;;;;;;;2.52;100.00;102375.69;5043309;28;20092;-88
2022/12/27 06:08:38;;;;;;;5.68;2.30;;;;;;;2.51;100.00;102372.22;5041544;28;20378;-89
2022/12/27 06:11:10;;;;;;;3.55;2.03;;;;;;;2.52;100.00;102368.84;5037237;28;20022;-88
2022/12/27 06:13:50;;;;;;;3.00;2.00;;;;;;;2.53;100.00;102369.75;5036239;28;20037;-89
2022/12/27 06:16:15;;;;;;;2.17;1.67;;;;;;;2.49;100.00;102368.72;5037015;28;20043;-89
2022/12/27 06:18:41;;;;;;;1.92;1.58;;;;;;;2.53;100.00;102375.75;5053238;28;20045;-93
2022/12/27 06:21:09;;;;;;;2.47;1.60;;;;;;;2.55;100.00;102373.22;5046357;28;20021;-88
2022/12/27 06:23:36;;;;;;;2.50;1.38;;;;;;;2.55;100.00;102371.56;5036479;28;20056;-89
2022/12/27 06:26:11;;;;;;;;;;;;;;;2.54;100.00;102372.38;5037068;28;20041;-89
2022/12/27 06:28:46;;;;;;;1.52;1.17;;;;;;;2.52;100.00;102381.66;5036760;28;19913;-89
2022/12/27 06:31:11;;;;;;;2.45;1.70;;;;;;;2.47;100.00;102367.81;5036264;28;20104;-89
2022/12/27 06:33:39;;;;;;;1.40;1.30;;;;;;;2.43;100.00;102374.47;5037803;28;20030;-88
2022/12/27 06:36:10;;;;;;;2.20;1.55;;;;;;;2.40;100.00;102376.91;5054915;28;20466;-90
2022/12/27 06:38:36;;;;;;;1.75;1.30;;;;;;;2.40;100.00;102373.44;5054817;28;20033;-88
2022/12/27 06:41:02;;;;;;;2.60;1.42;;;;;;;2.37;100.00;102374.22;5055361;28;20031;-88
2022/12/27 06:43:28;;;;;;;1.58;1.27;;;;;;;2.32;100.00;102370.56;5058563;28;20089;-89
2022/12/27 06:46:02;;;;;;;1.73;1.45;;;;;;;2.30;100.00;102369.63;5052236;28;20048;-91
2022/12/27 06:51:14;;;;;;;1.30;1.20;;;;;;;2.16;100.00;102362.22;5068251;28;20112;-96
2022/12/27 06:53:59;;;;;;;1.33;1.17;;;;;;;2.14;100.00;102363.84;5070318;28;20009;-91
2022/12/27 06:56:24;;;;;;;1.20;1.10;;;;;;;2.09;100.00;102372.97;5053961;28;20036;-91
2022/12/27 06:58:54;;;;;;;1.55;1.27;;;;;;;2.06;100.00;102377.09;5055707;28;20078;-94
2022/12/27 07:01:22;;;;;;;1.50;1.40;;;;;;;2.03;100.00;102374.44;5040403;28;20033;-87
2022/12/27 07:04:12;;;;;;;1.77;1.40;;;;;;;1.99;100.00;102370.81;5049026;28;20075;-87
2022/12/27 07:06:41;;;;;;;1.58;1.35;;;;;;;1.95;100.00;102377.50;5037422;28;20041;-83
2022/12/27 07:09:06;;;;;;;2.80;1.35;;;;;;;1.90;100.00;102379.00;5034613;28;20030;-86
2022/12/27 07:11:34;;;;;;;3.10;1.35;;;;;;;1.89;100.00;102387.47;5042649;28;20021;-86
2022/12/27 07:14:01;;;;;;;1.98;1.15;;;;;;;1.87;100.00;102388.19;5038131;28;20029;-86
2022/12/27 07:16:29;;;;;;;2.47;1.58;;;;;;;1.85;100.00;102388.13;5034599;28;20363;-86
2022/12/27 07:18:55;;;;;;;2.72;1.30;;;;;;;1.82;100.00;102394.00;5040459;28;20090;-86
2022/12/27 07:21:23;;;;;;;1.95;1.50;;;;;;;1.81;100.00;102392.25;5054183;28;20032;-86
2022/12/27 07:23:50;;;;;;;1.88;1.25;;;;;;;1.78;100.00;102394.66;5054296;28;20032;-86
2022/12/27 07:26:19;;;;;;;6.43;2.13;;;;;;;1.75;100.00;102394.50;5054371;28;20082;-86
2022/12/27 07:28:46;;;;;;;2.78;1.70;;;;;;;1.72;100.00;102394.38;5054597;28;20114;-86
2022/12/27 07:31:14;;;;;;;3.13;1.70;;;;;;;1.70;100.00;102399.41;5059036;28;20035;-90
2022/12/27 07:33:59;;;;;;;2.00;1.60;;;;;;;1.64;100.00;102396.59;5065124;28;20025;-89
2022/12/27 07:36:28;;;;;;;3.85;1.85;;;;;;;1.65;100.00;102398.34;5055556;28;20055;-92
2022/12/27 07:39:09;;;;;;;1.67;1.55;;;;;;;1.63;100.00;102399.94;5057607;28;20036;-95
2022/12/27 07:41:35;;;;;;;2.30;1.60;;;;;;;1.64;100.00;102403.38;5059380;28;20025;-90
2022/12/27 07:44:02;;;;;;;2.40;1.60;;;;;;;1.63;100.00;102401.66;5060021;28;20029;-90
2022/12/27 07:46:44;;;;;;;4.05;2.00;;;;;;;1.62;100.00;102408.44;5054132;28;20081;-88
2022/12/27 07:49:10;;;;;;;4.32;2.20;;;;;;;1.59;100.00;102400.59;5048362;28;20025;-87
2022/12/27 07:51:35;;;;;;;5.15;2.30;;;;;;;1.57;100.00;102406.47;5055479;28;20036;-87
2022/12/27 07:54:13;;;;;;;2.90;2.10;;;;;;;1.57;100.00;102404.78;5053931;28;20031;-86
2022/12/27 07:56:38;;;;;;;5.88;1.98;;;;;;;1.61;100.00;102408.38;5053826;28;20037;-87
2022/12/27 07:59:19;;;;;;;3.00;1.90;;;;;;;1.59;100.00;102415.09;5053405;28;20025;-86
2022/12/27 08:04:37;;;;;;;3.35;2.00;;;;;;;1.60;100.00;102411.72;5054048;28;20171;-86
2022/12/27 08:07:31;;;;;;;4.65;2.20;;;;;;;1.64;100.00;102414.50;5050539;28;20033;-86
2022/12/27 08:10:11;;;;;;;3.22;2.17;;;;;;;1.67;100.00;102421.44;5043256;28;20127;-86
2022/12/27 08:12:38;;;;;;;5.38;2.65;;;;;;;1.68;100.00;102415.53;5037483;28;20064;-86
2022/12/27 08:15:21;;;;;;;5.13;2.50;;;;;;;1.71;100.00;102415.66;5032263;28;20378;-90
2022/12/27 08:17:46;;;;;;;7.00;2.88;;;;;;;1.78;100.00;102435.63;5032951;28;20026;-83
2022/12/27 08:20:14;;;;;;;5.22;2.70;;;;;;;1.82;100.00;102428.94;5032709;28;20030;-86
2022/12/27 08:22:40;;;;;;;5.40;2.95;;;;;;;1.85;100.00;102434.22;5031955;28;20087;-88
2022/12/27 08:25:06;;;;;;;5.45;2.70;;;;;;;1.87;100.00;102435.19;5033236;28;20021;-88
2022/12/27 08:27:31;;;;;;;5.13;2.70;;;;;;;1.88;100.00;102442.06;5054081;22;20053;-88
2022/12/27 08:29:57;;;;;;;3.60;2.40;;;;;;;1.93;100.00;102449.94;5053770;28;20044;-87
2022/12/27 08:32:22;;;;;;;3.88;2.30;;;;;;;1.94;100.00;102447.44;5054063;28;20033;-88
2022/12/27 08:34:48;;;;;;;3.50;2.20;;;;;;;1.96;100.00;102447.53;5053174;28;20021;-87
2022/12/27 08:37:14;;;;;;;4.88;2.50;;;;;;;1.94;100.00;102439.75;5052864;28;20028;-88
2022/12/27 08:39:52;;;;;;;5.97;2.95;;;;;;;2.00;100.00;102445.19;5054464;28;20100;-88
2022/12/27 08:42:17;;;;;;;4.28;2.67;;;;;;;1.98;100.00;102436.53;5052844;28;20104;-87
2022/12/27 08:44:43;;;;;;;5.45;2.63;;;;;;;2.03;100.00;102436.75;5053943;28;20032;-87
2022/12/27 08:47:08;;;;;;;6.35;2.90;;;;;;;2.05;100.00;102434.25;5053724;28;20032;-87
2022/12/27 08:49:33;;;;;;;4.70;2.92;;;;;;;2.08;100.00;102434.41;5053450;28;20037;-87
2022/12/27 08:51:59;;;;;;;5.80;2.90;;;;;;;2.09;100.00;102424.22;5053134;28;20083;-88
2022/12/27 08:54:36;;;;;;;8.10;2.88;;;;;;;2.12;100.00;102421.78;5053260;28;20020;-87
2022/12/27 08:57:02;;;;;;;5.22;2.75;;;;;;;2.16;100.00;102426.25;5052641;28;20029;-87
2022/12/27 08:59:27;;;;;;;6.13;2.88;;;;;;;2.25;100.00;102435.16;5053268;28;20170;-87
2022/12/27 09:01:52;;;;;;;8.32;3.47;;;;;;;2.28;100.00;102430.19;5053816;28;20064;-87
2022/12/27 09:04:18;;;;;;;5.90;3.25;;;;;;;2.29;100.00;102425.13;5052529;28;20025;-87
2022/12/27 09:06:49;;;;;;;5.57;3.00;;;;;;;2.30;100.00;102426.88;5043706;28;20029;-87
2022/12/27 09:09:14;;;;;;;6.63;3.00;;;;;;;2.37;100.00;102429.69;5032927;28;20083;-88
2022/12/27 09:11:40;;;;;;;6.57;3.15;;;;;;;2.39;100.00;102422.94;5033178;28;20037;-87
2022/12/27 09:14:05;;;;;;;4.70;2.70;;;;;;;2.42;100.00;102425.66;5033027;28;20032;-87
2022/12/27 09:16:32;;;;;;;6.38;2.97;;;;;;;2.47;100.00;102429.31;5033829;28;20025;-87
2022/12/27 09:18:59;;;;;;;6.93;3.30;;;;;;;2.53;100.00;102427.00;5035173;28;20037;-87
2022/12/27 09:21:27;;;;;;;5.07;3.00;;;;;;;2.58;100.00;102433.22;5035381;28;20032;-87
2022/12/27 09:23:53;;;;;;;9.15;3.25;;;;;;;2.62;100.00;102439.34;5034402;28;20052;-87
2022/12/27 09:26:21;;;;;;;5.70;3.17;;;;;;;2.69;100.00;102436.22;5033166;28;20520;-87
2022/12/27 09:28:48;;;;;;;6.70;3.20;;;;;;;2.76;100.00;102434.81;5033207;28;20046;-87
2022/12/27 09:31:15;;;;;;;4.15;2.90;;;;;;;2.80;100.00;102435.81;5037687;28;20025;-87
2022/12/27 09:33:41;;;;;;;7.07;3.20;;;;;;;2.87;100.00;102454.09;5053184;28;20052;-87
2022/12/27 09:36:09;;;;;;;5.20;2.92;;;;;;;2.93;100.00;102454.34;5056998;28;20106;-86
2022/12/27 09:38:35;;;;;;;6.55;3.10;;;;;;;3.03;100.00;102450.47;5056120;28;20028;-87
2022/12/27 09:41:04;;;;;;;8.27;2.90;;;;;;;3.06;100.00;102452.28;5057054;28;20034;-86
2022/12/27 09:43:38;;;;;;;5.03;2.80;;;;;;;3.13;100.00;102454.31;5055409;28;20040;-87
2022/12/27 09:46:11;;;;;;;5.10;2.88;;;;;;;3.20;100.00;102458.00;5056110;28;20021;-87
2022/12/27 09:48:38;;;;;;;5.15;2.90;;;;;;;3.27;100.00;102453.97;5057099;28;20383;-87
2022/12/27 09:51:24;;;;;;;7.38;3.00;;;;;;;3.32;100.00;102448.22;5056619;28;20052;-87
2022/12/27 09:54:00;;;;;;;4.37;2.97;;;;;;;3.40;100.00;102445.97;5057000;28;20426;-87
2022/12/27 09:56:29;;;;;;;5.47;2.90;;;;;;;3.48;100.00;102454.88;5056655;28;20029;-87
2022/12/27 09:59:02;;;;;;;6.05;2.80;;;;;;;3.55;100.00;102445.69;5054392;28;20044;-87
2022/12/27 10:01:39;;;;;;;6.53;3.00;;;;;;;3.66;100.00;102441.00;5056911;28;20024;-87
2022/12/27 10:04:11;;;;;;;8.38;3.00;;;;;;;3.69;100.00;102447.13;5056589;28;20481;-87
2022/12/27 10:06:46;;;;;;;4.32;2.60;;;;;;;3.79;100.00;102447.47;5056226;28;20087;-87
2022/12/27 10:09:31;;;;;;;5.72;2.72;;;;;;;3.85;100.00;102443.44;5054602;28;20035;-87
2022/12/27 10:12:03;;;;;;;6.85;2.80;;;;;;;3.94;100.00;102452.34;5056350;28;20155;-87
2022/12/27 10:14:47;;;;;;;8.02;3.08;;;;;;;4.04;100.00;102462.16;5055910;28;20029;-88
2022/12/27 10:17:46;;;;;;;5.75;3.08;;;;;;;4.14;100.00;102453.06;5056398;28;20067;-87
2022/12/27 10:20:23;;;;;;;4.28;2.50;;;;;;;4.25;100.00;102453.50;5055494;28;20113;-87
2022/12/27 10:22:52;;;;;;;4.28;2.70;;;;;;;4.35;100.00;102450.44;5056500;28;20025;-87
2022/12/27 10:25:22;;;;;;;4.70;2.90;;;;;;;4.45;100.00;102455.09;5056109;28;20364;-87
2022/12/27 10:27:53;;;;;;;4.55;2.92;;;;;;;4.54;100.00;102453.66;5035691;28;20065;-88
2022/12/27 10:30:21;;;;;;;4.32;2.47;;;;;;;4.61;100.00;102451.34;5036280;28;20032;-87
2022/12/27 10:32:48;;;;;;;8.13;2.70;;;;;;;4.69;100.00;102443.91;5036156;28;20025;-87
2022/12/27 10:35:16;;;;;;;4.10;2.72;;;;;;;4.79;100.00;102451.13;5036019;28;20083;-87
2022/12/27 10:37:42;;;;;;;5.10;2.85;;;;;;;4.83;100.00;102449.53;5036347;28;20029;-87
2022/12/27 10:40:14;;;;;;;4.40;2.80;;;;;;;4.89;100.00;102449.75;5036713;28;20075;-88
2022/12/27 10:42:46;;;;;;;6.80;2.90;;;;;;;4.96;100.00;102453.38;5040299;28;20025;-88
2022/12/27 10:45:32;;;;;;;6.93;3.10;;;;;;;5.05;100.00;102453.72;5051085;28;20026;-87
2022/12/27 10:48:11;;;;;;;6.75;3.35;;;;;;;5.10;100.00;102452.16;5035346;28;20527;-87
2022/12/27 10:50:36;;;;;;;4.95;2.90;;;;;;;5.18;100.00;102451.56;5036409;28;20109;-88
2022/12/27 10:53:03;;;;;;;6.57;2.80;;;;;;;5.24;100.00;102454.31;5036085;28;20496;-87
2022/12/27 10:55:37;;;;;;;5.18;2.75;;;;;;;5.33;100.00;102456.31;5036065;28;20026;-87
2022/12/27 10:58:20;;;;;;;3.08;2.22;;;;;;;5.38;100.00;102455.66;5055163;28;20457;-87
2022/12/27 11:00:54;;;;;;;6.03;2.63;;;;;;;5.37;100.00;102461.63;5055890;28;20021;-87
2022/12/27 11:03:19;;;;;;;4.47;2.70;;;;;;;5.31;100.00;102463.13;5054351;28;20029;-86
2022/12/27 11:05:58;;;;;;;5.85;2.50;;;;;;;5.23;100.00;102456.03;5055311;28;20488;-83
2022/12/27 11:08:23;;;;;;;4.80;2.67;;;;;;;5.16;100.00;102455.78;5055961;28;20020;-88
2022/12/27 11:11:08;;;;;;;4.47;2.60;;;;;;;5.10;100.00;102451.31;5051915;28;20117;-88
2022/12/27 11:13:34;;;;;;;3.60;2.40;;;;;;;5.06;100.00;102452.91;5035460;28;20032;-88
2022/12/27 11:15:59;;;;;;;6.05;2.50;;;;;;;5.06;100.00;102445.19;5035430;28;20025;-88
2022/12/27 11:18:25;;;;;;;7.47;2.83;;;;;;;5.09;100.00;102439.25;5035455;28;20120;-88
2022/12/27 11:20:54;;;;;;;5.32;2.60;;;;;;;5.05;100.00;102432.25;5035922;28;20021;-88
2022/12/27 11:23:23;;;;;;;5.72;2.60;;;;;;;5.04;100.00;102431.38;5035401;28;20159;-89
2022/12/27 11:25:54;;;;;;;4.70;2.80;;;;;;;5.04;100.00;102435.63;5035177;28;20025;-89
2022/12/27 11:28:37;;;;;;;4.07;2.50;;;;;;;5.07;100.00;102438.31;5035664;28;20046;-88
2022/12/27 11:31:09;;;;;;;5.07;2.80;;;;;;;5.09;100.00;102431.53;5040771;28;20029;-88
2022/12/27 11:33:38;;;;;;;4.65;2.55;;;;;;;5.12;100.00;102430.75;5055548;28;20033;-88
2022/12/27 11:36:06;;;;;;;4.95;2.75;;;;;;;5.13;100.00;102440.22;5052336;28;20425;-88
2022/12/27 11:38:33;;;;;;;4.50;2.45;;;;;;;5.17;100.00;102442.09;5034874;28;20025;-88
2022/12/27 11:41:07;;;;;;;5.55;2.50;;;;;;;5.17;100.00;102437.78;5034819;28;20029;-88
2022/12/27 11:43:49;;;;;;;3.63;2.28;;;;;;;5.19;100.00;102437.84;5035331;28;20040;-88
2022/12/27 11:46:26;;;;;;;3.72;2.50;;;;;;;5.20;100.00;102429.28;5034324;28;20068;-88
2022/12/27 11:48:57;;;;;;;4.35;2.40;;;;;;;5.21;100.00;102425.91;5035378;28;20026;-88
2022/12/27 11:51:54;;;;;;;3.17;2.10;;;;;;;5.24;100.00;102423.44;5037851;28;20021;-88
2022/12/27 11:54:48;;;;;;;3.13;1.90;;;;;;;5.26;100.00;102411.50;5013924;28;20041;-88
2022/12/27 11:57:13;;;;;;;3.25;2.20;;;;;;;5.29;100.00;102416.75;5055025;28;20074;-88
2022/12/27 11:59:58;;;;;;;4.38;2.47;;;;;;;5.26;100.00;102416.63;5054862;28;20464;-88
2022/12/27 12:02:34;;;;;;;5.68;2.45;;;;;;;5.25;100.00;102413.16;5042289;28;20021;-90
2022/12/27 12:05:40;;;;;;;5.28;2.78;;;;;;;5.19;100.00;102413.00;5035051;28;20033;-89
2022/12/27 12:08:34;;;;;;;5.38;2.65;;;;;;;5.16;100.00;102423.19;5029726;28;20032;-89
2022/12/27 12:11:11;;;;;;;4.65;2.80;;;;;;;5.14;100.00;102414.53;5035416;28;20470;-89
2022/12/27 12:13:37;;;;;;;5.40;2.75;;;;;;;5.09;100.00;102406.66;5052621;28;20028;-93
2022/12/27 12:16:23;;;;;;;4.30;2.85;;;;;;;5.05;100.00;102399.69;5055149;28;20029;-95
2022/12/27 12:19:04;;;;;;;4.80;2.60;;;;;;;5.04;100.00;102394.47;5055070;28;20056;-94
2022/12/27 12:21:33;;;;;;;4.32;2.53;;;;;;;5.03;100.00;102388.47;5054647;28;20075;-94
2022/12/27 12:24:35;;;;;;;6.35;2.47;;;;;;;5.03;100.00;102388.47;5054897;28;20492;-95
2022/12/27 12:27:09;;;;;;;3.85;2.50;;;;;;;5.01;100.00;102396.97;5054361;28;20052;-93
2022/12/27 12:29:55;;;;;;;5.40;2.50;;;;;;;5.01;100.00;102396.97;5054751;28;20120;-93
2022/12/27 12:32:32;;;;;;;6.07;2.40;;;;;;;5.01;100.00;102392.66;5054704;28;20025;-94
2022/12/27 12:35:16;;;;;;;4.68;2.60;;;;;;;5.01;100.00;102384.09;5054702;28;20032;-93
2022/12/27 12:37:59;;;;;;;3.38;2.22;;;;;;;5.00;100.00;102383.19;5054226;28;20473;-93
2022/12/27 12:40:37;;;;;;;2.72;2.15;;;;;;;5.01;100.00;102389.25;5034605;28;20029;-95
2022/12/27 12:43:43;;;;;;;3.08;2.40;;;;;;;5.03;100.00;102385.88;5034206;28;20036;-94
2022/12/27 12:46:46;;;;;;;2.80;2.10;;;;;;;5.05;100.00;102375.63;5034461;28;20043;-94
2022/12/27 12:49:42;;;;;;;5.13;2.28;;;;;;;5.03;100.00;102365.28;5034116;28;20025;-94
2022/12/27 12:52:19;;;;;;;;;;;;;;;5.04;100.00;102356.75;5034444;28;20478;-94
2022/12/27 12:55:03;;;;;;;;;;;;;;;5.05;100.00;102343.06;5034514;28;19992;-94
2022/12/27 12:57:48;;;;;;;5.35;2.67;;;;;;;5.03;100.00;102337.00;5034622;28;20332;-94
2022/12/27 13:00:27;;;;;;;4.10;2.25;;;;;;;5.09;100.00;102337.16;5033947;28;20030;-94
2022/12/27 13:03:14;;;;;;;5.30;2.30;;;;;;;5.21;100.00;102338.38;5034170;28;20179;-94
2022/12/27 13:05:58;;;;;;;7.40;2.40;;;;;;;5.32;100.00;102329.28;5034812;28;20041;-96
2022/12/27 13:09:01;;;;;;;4.53;2.20;;;;;;;5.41;100.00;102321.84;5040043;28;20029;-90
2022/12/27 13:11:46;;;;;;;5.07;2.40;;;;;;;5.50;100.00;102320.38;5049012;28;20028;-89
2022/12/27 13:14:17;;;;;;;5.35;2.30;;;;;;;5.54;100.00;102319.63;5033890;28;20359;-90
2022/12/27 13:17:09;;;;;;;3.05;2.22;;;;;;;5.53;100.00;102315.31;5045518;28;20044;-90
2022/12/27 13:20:07;;;;;;;5.53;2.38;;;;;;;5.48;100.00;102310.00;5042592;28;20037;-90
2022/12/27 13:23:10;;;;;;;3.30;2.25;;;;;;;5.42;100.00;102307.28;5053698;28;20057;-89
2022/12/27 13:26:11;;;;;;;2.70;2.03;;;;;;;5.44;100.00;102310.78;5042687;28;20048;-88
2022/12/27 13:29:00;;;;;;;5.88;2.25;;;;;;;5.40;100.00;102308.94;5053687;28;20044;-88
2022/12/27 13:31:42;;;;;;;7.47;2.22;;;;;;;5.38;100.00;102308.00;5052673;28;20025;-89
2022/12/27 13:35:03;;;;;;;3.22;2.33;;;;;;;5.35;100.00;102298.50;5051374;28;20032;-89
2022/12/27 13:37:51;;;;;;;4.50;2.60;;;;;;;5.35;100.00;102290.78;4973243;28;20125;-90
2022/12/27 13:40:52;;;;;;;7.63;2.50;;;;;;;5.31;100.00;102281.19;5053554;28;20021;-89
2022/12/27 13:43:36;;;;;;;4.10;2.20;;;;;;;5.31;100.00;102268.31;5052958;28;20029;-90
2022/12/27 13:46:22;;;;;;;5.22;2.55;;;;;;;5.29;100.00;102257.13;5053799;28;20107;-89
2022/12/27 13:48:59;;;;;;;5.93;2.60;;;;;;;5.28;100.00;102263.09;5053498;28;20087;-89